createdAt,value
2018-07-14T00:00:38.950Z,92.30
2018-07-14T00:01:38.968Z,91.67
2018-07-14T00:02:38.990Z,90.42
2018-07-14T00:03:39.005Z,90.95
2018-07-14T00:04:39.025Z,90.42
2018-07-14T00:05:39.045Z,88.89
2018-07-14T00:06:39.070Z,89.61
2018-07-14T00:07:39.083Z,90.42
2018-07-14T00:08:39.107Z,89.18
2018-07-14T00:09:39.142Z,89.47
2018-07-14T00:10:39.146Z,89.37
2018-07-14T00:11:39.162Z,90.52
2018-07-14T00:12:39.192Z,90.19
2018-07-14T00:13:39.210Z,90.47
2018-07-14T00:14:39.222Z,90.67
2018-07-14T00:15:39.245Z,89.94
2018-07-14T00:16:39.262Z,90.04
2018-07-14T00:17:39.292Z,89.71
2018-07-14T00:18:39.301Z,90.38
2018-07-14T00:19:39.334Z,92.54
2018-07-14T00:20:39.346Z,93.40
2018-07-14T00:21:39.365Z,93.49
2018-07-14T00:22:39.391Z,92.54
2018-07-14T00:23:39.411Z,91.86
2018-07-14T00:24:39.422Z,91.96
2018-07-14T00:25:39.445Z,92.92
2018-07-14T00:26:39.473Z,94.60
2018-07-14T00:27:39.482Z,94.26
2018-07-14T00:28:39.506Z,93.78
2018-07-14T00:29:39.530Z,92.63
2018-07-14T00:30:39.545Z,92.06
2018-07-14T00:31:39.567Z,91.05
2018-07-14T00:32:39.586Z,90.67
2018-07-14T00:33:39.607Z,90.00
2018-07-14T00:34:39.635Z,90.47
2018-07-14T00:35:39.647Z,90.67
2018-07-14T00:36:39.689Z,89.61
2018-07-14T00:37:39.679Z,90.47
2018-07-14T00:38:39.698Z,89.42
2018-07-14T00:39:39.720Z,90.38
2018-07-14T00:40:39.755Z,89.80
2018-07-14T00:41:39.757Z,89.80
2018-07-14T00:42:39.776Z,91.29
2018-07-14T00:43:39.803Z,92.25
2018-07-14T00:44:39.837Z,91.96
2018-07-14T00:45:39.840Z,91.29
2018-07-14T00:46:39.858Z,91.29
2018-07-14T00:47:39.884Z,93.02
2018-07-14T00:48:39.896Z,92.82
2018-07-14T00:49:39.918Z,92.92
2018-07-14T00:50:39.934Z,92.35
2018-07-14T00:51:39.958Z,92.10
2018-07-14T00:52:39.979Z,91.05
2018-07-14T00:53:39.998Z,91.67
2018-07-14T00:54:40.014Z,92.63
2018-07-14T00:55:40.036Z,92.54
2018-07-14T00:56:40.068Z,94.02
2018-07-14T00:57:40.089Z,95.41
2018-07-14T00:58:40.099Z,94.98
2018-07-14T00:59:40.119Z,93.49
2018-07-14T01:00:40.134Z,93.11
2018-07-14T01:01:40.153Z,91.86
2018-07-14T01:02:40.175Z,91.96
2018-07-14T01:03:40.192Z,91.67
2018-07-14T01:04:40.211Z,92.54
2018-07-14T01:05:40.234Z,93.83
2018-07-14T01:06:40.258Z,93.02
2018-07-14T01:07:40.269Z,91.96
2018-07-14T01:08:40.295Z,91.10
2018-07-14T01:09:40.314Z,91.39
2018-07-14T01:10:40.335Z,91.10
2018-07-14T01:11:40.352Z,91.53
2018-07-14T01:12:40.380Z,92.97
2018-07-14T01:13:40.390Z,92.44
2018-07-14T01:14:40.415Z,92.06
2018-07-14T01:15:40.440Z,91.39
2018-07-14T01:16:40.451Z,90.23
2018-07-14T01:17:40.525Z,90.47
2018-07-14T01:18:40.495Z,89.90
2018-07-14T01:19:40.514Z,90.19
2018-07-14T01:20:40.526Z,90.43
2018-07-14T01:21:40.555Z,91.34
2018-07-14T01:22:40.568Z,91.00
2018-07-14T01:23:40.593Z,91.58
2018-07-14T01:24:40.612Z,92.06
2018-07-14T01:25:40.629Z,93.35
2018-07-14T01:26:40.647Z,93.98
2018-07-14T01:27:40.663Z,94.60
2018-07-14T01:28:40.684Z,95.65
2018-07-14T01:29:40.706Z,95.17
2018-07-14T01:30:40.724Z,96.08
2018-07-14T01:31:40.753Z,96.66
2018-07-14T01:32:40.762Z,97.33
2018-07-14T01:33:40.792Z,97.52
2018-07-14T01:34:40.809Z,98.19
2018-07-14T01:35:40.828Z,96.84
2018-07-14T01:36:40.841Z,95.84
2018-07-14T01:37:40.864Z,94.50
2018-07-14T01:38:40.887Z,93.74
2018-07-14T01:39:40.901Z,94.50
2018-07-14T01:40:40.968Z,94.40
2018-07-14T01:41:40.940Z,94.40
2018-07-14T01:42:40.966Z,94.60
2018-07-14T01:43:41.008Z,94.89
2018-07-14T01:44:41.004Z,93.54
2018-07-14T01:45:41.020Z,93.40
2018-07-14T01:46:41.046Z,92.63
2018-07-14T01:47:41.061Z,92.06
2018-07-14T01:48:41.082Z,92.06
2018-07-14T01:49:41.097Z,93.16
2018-07-14T01:50:41.117Z,92.97
2018-07-14T01:51:41.139Z,92.06
2018-07-14T01:52:41.159Z,92.15
2018-07-14T01:53:41.181Z,92.44
2018-07-14T01:54:41.200Z,93.93
2018-07-14T01:55:41.222Z,94.40
2018-07-14T01:56:41.238Z,94.02
2018-07-14T01:57:41.260Z,93.02
2018-07-14T01:58:41.280Z,93.02
2018-07-14T01:59:41.297Z,93.64
2018-07-14T02:00:41.313Z,93.45
2018-07-14T02:01:41.334Z,92.87
2018-07-14T02:02:41.353Z,93.26
2018-07-14T02:03:41.373Z,94.36
2018-07-14T02:04:41.388Z,94.60
2018-07-14T02:05:41.410Z,95.03
2018-07-14T02:06:41.434Z,95.12
2018-07-14T02:07:41.453Z,95.03
2018-07-14T02:08:41.471Z,94.17
2018-07-14T02:09:41.494Z,93.54
2018-07-14T02:10:41.514Z,92.97
2018-07-14T02:11:41.536Z,92.58
2018-07-14T02:12:41.550Z,92.01
2018-07-14T02:13:41.572Z,91.34
2018-07-14T02:14:41.602Z,91.72
2018-07-14T02:15:41.614Z,92.92
2018-07-14T02:16:41.628Z,93.50
2018-07-14T02:17:41.647Z,94.07
2018-07-14T02:18:41.664Z,94.07
2018-07-14T02:19:41.686Z,94.84
2018-07-14T02:20:41.749Z,94.36
2018-07-14T02:21:41.723Z,94.26
2018-07-14T02:22:41.745Z,95.27
2018-07-14T02:23:41.764Z,95.75
2018-07-14T02:24:41.783Z,95.65
2018-07-14T02:25:41.811Z,95.65
2018-07-14T02:26:41.818Z,96.89
2018-07-14T02:27:41.853Z,97.28
2018-07-14T02:28:41.861Z,96.99
2018-07-14T02:29:41.886Z,95.70
2018-07-14T02:30:41.913Z,95.75
2018-07-14T02:31:41.920Z,94.93
2018-07-14T02:32:41.939Z,94.65
2018-07-14T02:33:41.957Z,93.64
2018-07-14T02:34:41.979Z,93.45
2018-07-14T02:35:42.003Z,93.16
2018-07-14T02:36:42.014Z,92.78
2018-07-14T02:37:42.043Z,91.82
2018-07-14T02:38:42.063Z,92.01
2018-07-14T02:39:42.074Z,91.82
2018-07-14T02:40:42.124Z,92.21
2018-07-14T02:41:42.112Z,93.16
2018-07-14T02:42:42.132Z,92.97
2018-07-14T02:43:42.154Z,92.87
2018-07-14T02:44:42.176Z,93.79
2018-07-14T02:45:42.202Z,93.12
2018-07-14T02:46:42.214Z,92.97
2018-07-14T02:47:42.229Z,92.30
2018-07-14T02:48:42.250Z,92.49
2018-07-14T02:49:42.274Z,93.59
2018-07-14T02:50:42.289Z,93.59
2018-07-14T02:51:42.307Z,94.31
2018-07-14T02:52:42.333Z,95.79
2018-07-14T02:53:42.357Z,97.13
2018-07-14T02:54:42.379Z,98.28
2018-07-14T02:55:42.389Z,99.81
2018-07-14T02:56:42.407Z,99.99
2018-07-14T02:57:42.430Z,98.95
2018-07-14T02:58:42.441Z,98.52
2018-07-14T02:59:42.485Z,97.08
2018-07-14T03:00:42.484Z,97.71
2018-07-14T03:01:42.520Z,97.37
2018-07-14T03:02:42.526Z,96.37
2018-07-14T03:03:42.545Z,95.89
2018-07-14T03:04:42.571Z,94.55
2018-07-14T03:05:42.579Z,92.73
2018-07-14T03:06:42.603Z,92.54
2018-07-14T03:07:42.621Z,92.92
2018-07-14T03:08:42.642Z,93.07
2018-07-14T03:09:42.659Z,92.58
2018-07-14T03:10:42.681Z,92.83
2018-07-14T03:11:42.703Z,93.79
2018-07-14T03:12:42.754Z,95.27
2018-07-14T03:13:42.741Z,95.75
2018-07-14T03:14:42.756Z,94.79
2018-07-14T03:15:42.772Z,94.89
2018-07-14T03:16:42.797Z,97.37
2018-07-14T03:17:42.824Z,98.28
2018-07-14T03:18:42.833Z,97.85
2018-07-14T03:19:42.849Z,96.51
2018-07-14T03:20:42.876Z,96.80
2018-07-14T03:21:42.888Z,97.47
2018-07-14T03:22:42.911Z,97.23
2018-07-14T03:23:42.928Z,97.04
2018-07-14T03:24:42.952Z,97.42
2018-07-14T03:25:42.969Z,97.66
2018-07-14T03:26:42.985Z,96.32
2018-07-14T03:27:43.010Z,95.46
2018-07-14T03:28:43.026Z,94.17
2018-07-14T03:29:43.047Z,94.65
2018-07-14T03:30:43.063Z,93.79
2018-07-14T03:31:43.081Z,93.21
2018-07-14T03:32:43.100Z,93.69
2018-07-14T03:33:43.119Z,94.45
2018-07-14T03:34:43.140Z,94.50
2018-07-14T03:35:43.161Z,95.17
2018-07-14T03:36:43.231Z,94.79
2018-07-14T03:37:43.200Z,94.50
2018-07-14T03:38:43.216Z,95.75
2018-07-14T03:39:43.240Z,96.03
2018-07-14T03:40:43.259Z,95.27
2018-07-14T03:41:43.274Z,95.94
2018-07-14T03:42:43.294Z,96.03
2018-07-14T03:43:43.314Z,95.03
2018-07-14T03:44:43.333Z,93.98
2018-07-14T03:45:43.360Z,93.79
2018-07-14T03:46:43.370Z,93.02
2018-07-14T03:47:43.391Z,92.83
2018-07-14T03:48:43.413Z,93.59
2018-07-14T03:49:43.433Z,94.21
2018-07-14T03:50:43.450Z,95.03
2018-07-14T03:51:43.466Z,94.36
2018-07-14T03:52:43.499Z,94.07
2018-07-14T03:53:43.508Z,93.59
2018-07-14T03:54:43.529Z,92.83
2018-07-14T03:55:43.549Z,92.92
2018-07-14T03:56:43.564Z,93.93
2018-07-14T03:57:43.590Z,94.79
2018-07-14T03:58:43.608Z,94.55
2018-07-14T03:59:43.621Z,93.88
2018-07-14T04:00:43.641Z,94.41
2018-07-14T04:01:43.662Z,95.75
2018-07-14T04:02:43.683Z,95.27
2018-07-14T04:03:43.699Z,95.84
2018-07-14T04:04:43.726Z,95.75
2018-07-14T04:05:43.749Z,96.80
2018-07-14T04:06:43.757Z,97.75
2018-07-14T04:07:43.780Z,98.43
2018-07-14T04:08:43.799Z,97.37
2018-07-14T04:09:43.817Z,95.31
2018-07-14T04:10:43.849Z,94.36
2018-07-14T04:11:43.858Z,93.16
2018-07-14T04:12:43.893Z,93.59
2018-07-14T04:13:43.900Z,95.03
2018-07-14T04:14:43.953Z,94.36
2018-07-14T04:15:43.938Z,93.50
2018-07-14T04:16:43.974Z,93.21
2018-07-14T04:17:43.985Z,93.02
2018-07-14T04:18:44.013Z,92.92
2018-07-14T04:19:44.013Z,93.02
2018-07-14T04:20:44.036Z,92.87
2018-07-14T04:21:44.057Z,92.49
2018-07-14T04:22:44.077Z,92.01
2018-07-14T04:23:44.090Z,91.49
2018-07-14T04:24:44.111Z,90.43
2018-07-14T04:25:44.150Z,90.81
2018-07-14T04:26:44.150Z,90.43
2018-07-14T04:27:44.176Z,89.32
2018-07-14T04:28:44.190Z,89.04
2018-07-14T04:29:44.215Z,89.51
2018-07-14T04:30:44.230Z,89.90
2018-07-14T04:31:44.250Z,90.62
2018-07-14T04:32:44.271Z,90.43
2018-07-14T04:33:44.298Z,90.53
2018-07-14T04:34:44.317Z,90.00
2018-07-14T04:35:44.330Z,88.79
2018-07-14T04:36:44.352Z,87.84
2018-07-14T04:37:44.375Z,87.16
2018-07-14T04:38:44.389Z,86.72
2018-07-14T04:39:44.418Z,85.77
2018-07-14T04:40:44.433Z,85.14
2018-07-14T04:41:44.452Z,84.56
2018-07-14T04:42:44.477Z,84.56
2018-07-14T04:43:44.501Z,84.71
2018-07-14T04:44:44.513Z,86.78
2018-07-14T04:45:44.541Z,88.02
2018-07-14T04:46:44.559Z,89.61
2018-07-14T04:47:44.573Z,89.47
2018-07-14T04:48:44.608Z,89.08
2018-07-14T04:49:44.614Z,88.98
2018-07-14T04:50:44.635Z,88.98
2018-07-14T04:51:44.662Z,88.98
2018-07-14T04:52:44.678Z,88.31
2018-07-14T04:53:44.696Z,87.88
2018-07-14T04:54:44.719Z,88.12
2018-07-14T04:55:44.739Z,90.04
2018-07-14T04:56:44.760Z,90.38
2018-07-14T04:57:44.782Z,91.00
2018-07-14T04:58:44.804Z,90.33
2018-07-14T04:59:44.824Z,90.42
2018-07-14T05:00:44.846Z,89.51
2018-07-14T05:01:44.865Z,87.05
2018-07-14T05:02:44.887Z,84.89
2018-07-14T05:03:44.906Z,83.20
2018-07-14T05:04:44.929Z,81.67
2018-07-14T05:05:44.962Z,80.65
2018-07-14T05:06:44.970Z,79.82
2018-07-14T05:07:44.993Z,79.05
2018-07-14T05:08:45.030Z,80.36
2018-07-14T05:09:45.068Z,80.17
2018-07-14T05:10:45.060Z,81.19
2018-07-14T05:11:45.091Z,82.09
2018-07-14T05:12:45.112Z,82.24
2018-07-14T05:13:45.141Z,81.76
2018-07-14T05:14:45.170Z,82.15
2018-07-14T05:15:45.186Z,81.81
2018-07-14T05:16:45.194Z,80.69
2018-07-14T05:17:45.221Z,80.06
2018-07-14T05:18:45.237Z,77.63
2018-07-14T05:19:45.260Z,74.58
2018-07-14T05:20:45.296Z,73.08
2018-07-14T05:21:45.317Z,72.89
2018-07-14T05:22:45.329Z,72.02
2018-07-14T05:23:45.359Z,72.27
2018-07-14T05:24:45.381Z,73.88
2018-07-14T05:25:45.405Z,74.10
2018-07-14T05:26:45.427Z,73.41
2018-07-14T05:27:45.463Z,71.51
2018-07-14T05:28:45.482Z,70.26
2018-07-14T05:29:45.501Z,69.81
2018-07-14T05:30:45.529Z,69.42
2018-07-14T05:31:45.547Z,68.98
2018-07-14T05:32:45.570Z,67.91
2018-07-14T05:33:45.614Z,68.55
2018-07-14T05:34:45.631Z,68.40
2018-07-14T05:35:45.647Z,66.82
2018-07-14T05:36:45.667Z,64.75
2018-07-14T05:37:45.698Z,63.37
2018-07-14T05:38:45.714Z,61.82
2018-07-14T05:39:45.739Z,63.56
2018-07-14T05:40:45.767Z,65.47
2018-07-14T05:41:45.798Z,66.17
2018-07-14T05:42:45.813Z,67.33
2018-07-14T05:43:45.838Z,67.78
2018-07-14T05:44:45.859Z,67.75
2018-07-14T05:45:45.893Z,65.59
2018-07-14T05:46:46.038Z,64.27
2018-07-14T05:47:45.945Z,63.40
2018-07-14T05:48:45.973Z,63.85
2018-07-14T05:49:46.001Z,64.07
2018-07-14T05:50:46.021Z,62.55
2018-07-14T05:51:46.048Z,59.22
2018-07-14T05:52:46.069Z,59.59
2018-07-14T05:53:46.110Z,62.53
2018-07-14T05:54:46.129Z,64.24
2018-07-14T05:55:46.165Z,62.56
2018-07-14T05:56:46.175Z,63.95
2018-07-14T05:57:46.216Z,64.11
2018-07-14T05:58:46.231Z,65.53
2018-07-14T05:59:46.252Z,66.91
2018-07-14T06:00:46.295Z,68.23
2018-07-14T06:01:46.324Z,68.10
2018-07-14T06:02:46.343Z,65.63
2018-07-14T06:03:46.362Z,65.11
2018-07-14T06:04:46.399Z,63.27
2018-07-14T06:05:46.417Z,62.27
2018-07-14T06:06:46.443Z,60.06
2018-07-14T06:07:46.488Z,57.44
2018-07-14T06:08:46.495Z,56.43
2018-07-14T06:09:46.523Z,54.40
2018-07-14T06:10:46.551Z,51.90
2018-07-14T06:11:46.579Z,53.20
2018-07-14T06:12:46.597Z,57.90
2018-07-14T06:13:46.629Z,56.52
2018-07-14T06:14:46.659Z,54.60
2018-07-14T06:15:46.683Z,51.56
2018-07-14T06:16:46.727Z,48.49
2018-07-14T06:17:46.739Z,47.61
2018-07-14T06:18:46.774Z,47.22
2018-07-14T06:19:46.790Z,49.46
2018-07-14T06:20:46.817Z,51.29
2018-07-14T06:21:46.843Z,51.41
2018-07-14T06:22:46.876Z,50.21
2018-07-14T06:23:46.916Z,47.83
2018-07-14T06:24:46.928Z,49.83
2018-07-14T06:25:46.967Z,54.10
2018-07-14T06:26:46.981Z,57.36
2018-07-14T06:27:47.005Z,59.71
2018-07-14T06:28:47.044Z,58.36
2018-07-14T06:29:47.068Z,59.20
2018-07-14T06:30:47.099Z,59.39
2018-07-14T06:31:47.121Z,59.48
2018-07-14T06:32:47.166Z,56.79
2018-07-14T06:33:47.181Z,55.60
2018-07-14T06:34:47.204Z,56.76
2018-07-14T06:35:47.237Z,56.93
2018-07-14T06:36:47.268Z,58.58
2018-07-14T06:37:47.295Z,57.64
2018-07-14T06:38:47.328Z,56.28
2018-07-14T06:39:47.347Z,56.86
2018-07-14T06:40:47.402Z,56.92
2018-07-14T06:41:47.408Z,53.45
2018-07-14T06:42:47.444Z,49.44
2018-07-14T06:43:47.467Z,49.05
2018-07-14T06:44:47.553Z,48.56
2018-07-14T06:45:47.520Z,48.44
2018-07-14T06:46:47.560Z,51.33
2018-07-14T06:47:47.580Z,54.82
2018-07-14T06:48:47.612Z,56.40
2018-07-14T06:49:47.632Z,53.50
2018-07-14T06:50:47.662Z,49.80
2018-07-14T06:51:47.699Z,51.48
2018-07-14T06:52:47.719Z,52.55
2018-07-14T06:53:47.761Z,55.79
2018-07-14T06:54:47.774Z,56.54
2018-07-14T06:55:47.816Z,56.64
2018-07-14T06:56:47.836Z,56.86
2018-07-14T06:57:47.950Z,54.83
2018-07-14T06:58:47.891Z,54.52
2018-07-14T06:59:47.928Z,55.43
2018-07-14T07:00:47.953Z,56.30
2018-07-14T07:01:47.974Z,55.55
2018-07-14T07:02:48.009Z,52.98
2018-07-14T07:03:48.040Z,52.53
2018-07-14T07:04:48.061Z,51.48
2018-07-14T07:05:48.095Z,52.50
2018-07-14T07:06:48.127Z,51.92
2018-07-14T07:07:48.159Z,49.66
2018-07-14T07:08:48.185Z,51.45
2018-07-14T07:09:48.218Z,51.94
2018-07-14T07:10:48.240Z,54.42
2018-07-14T07:11:48.271Z,55.10
2018-07-14T07:12:48.299Z,53.89
2018-07-14T07:13:48.429Z,49.97
2018-07-14T07:14:48.364Z,47.44
2018-07-14T07:15:48.387Z,45.57
2018-07-14T07:16:48.434Z,43.18
2018-07-14T07:17:48.451Z,44.30
2018-07-14T07:18:48.488Z,45.02
2018-07-14T07:19:48.509Z,47.09
2018-07-14T07:20:48.537Z,49.58
2018-07-14T07:21:48.575Z,49.88
2018-07-14T07:22:48.686Z,47.63
2018-07-14T07:23:48.627Z,44.59
2018-07-14T07:24:48.660Z,43.44
2018-07-14T07:25:48.691Z,45.58
2018-07-14T07:26:48.798Z,47.68
2018-07-14T07:27:48.752Z,48.56
2018-07-14T07:28:48.847Z,47.97
2018-07-14T07:29:48.812Z,47.71
2018-07-14T07:30:48.842Z,47.02
2018-07-14T07:31:48.867Z,47.49
2018-07-14T07:32:48.895Z,48.58
2018-07-14T07:33:48.931Z,45.55
2018-07-14T07:34:48.966Z,43.69
2018-07-14T07:35:49.010Z,44.94
2018-07-14T07:36:49.018Z,46.80
2018-07-14T07:37:49.056Z,48.46
2018-07-14T07:38:49.075Z,48.61
2018-07-14T07:39:49.110Z,50.04
2018-07-14T07:40:49.138Z,50.60
2018-07-14T07:41:49.169Z,52.04
2018-07-14T07:42:49.204Z,50.46
2018-07-14T07:43:49.234Z,49.02
2018-07-14T07:44:49.264Z,48.41
2018-07-14T07:45:49.296Z,48.90
2018-07-14T07:46:49.324Z,48.46
2018-07-14T07:47:49.364Z,47.71
2018-07-14T07:48:49.388Z,44.49
2018-07-14T07:49:49.429Z,43.67
2018-07-14T07:50:49.465Z,46.41
2018-07-14T07:51:49.480Z,48.49
2018-07-14T07:52:49.506Z,50.07
2018-07-14T07:53:49.537Z,49.83
2018-07-14T07:54:49.567Z,47.90
2018-07-14T07:55:49.601Z,47.22
2018-07-14T07:56:49.622Z,47.34
2018-07-14T07:57:49.661Z,47.14
2018-07-14T07:58:49.685Z,47.71
2018-07-14T07:59:49.716Z,45.94
2018-07-14T08:00:49.749Z,44.53
2018-07-14T08:01:49.784Z,43.49
2018-07-14T08:02:49.824Z,43.59
2018-07-14T08:03:49.849Z,45.78
2018-07-14T08:04:49.865Z,44.09
2018-07-14T08:05:49.894Z,41.66
2018-07-14T08:06:49.931Z,41.41
2018-07-14T08:07:49.964Z,43.57
2018-07-14T08:08:49.989Z,42.56
2018-07-14T08:09:50.028Z,42.02
2018-07-14T08:10:50.056Z,42.38
2018-07-14T08:11:50.075Z,41.19
2018-07-14T08:12:50.112Z,40.92
2018-07-14T08:13:50.135Z,42.66
2018-07-14T08:14:50.166Z,41.39
2018-07-14T08:15:50.209Z,40.35
2018-07-14T08:16:50.234Z,43.07
2018-07-14T08:17:50.257Z,40.86
2018-07-14T08:18:50.292Z,42.05
2018-07-14T08:19:50.314Z,42.38
2018-07-14T08:20:50.369Z,42.19
2018-07-14T08:21:50.382Z,42.07
2018-07-14T08:22:50.472Z,42.29
2018-07-14T08:23:50.446Z,40.68
2018-07-14T08:24:50.482Z,40.58
2018-07-14T08:25:50.502Z,42.30
2018-07-14T08:26:50.531Z,42.88
2018-07-14T08:27:50.555Z,46.07
2018-07-14T08:28:50.587Z,44.49
2018-07-14T08:29:50.616Z,45.87
2018-07-14T08:30:50.645Z,47.12
2018-07-14T08:31:50.671Z,46.62
2018-07-14T08:32:50.704Z,44.10
2018-07-14T08:33:50.742Z,46.66
2018-07-14T08:34:50.771Z,48.58
2018-07-14T08:35:50.795Z,48.68
2018-07-14T08:36:50.816Z,44.98
2018-07-14T08:37:50.851Z,46.75
2018-07-14T08:38:50.873Z,46.41
2018-07-14T08:39:50.934Z,45.92
2018-07-14T08:40:50.929Z,46.95
2018-07-14T08:41:50.965Z,48.34
2018-07-14T08:42:50.986Z,49.71
2018-07-14T08:43:51.110Z,50.60
2018-07-14T08:44:51.033Z,52.55
2018-07-14T08:45:51.068Z,50.68
2018-07-14T08:46:51.091Z,51.41
2018-07-14T08:47:51.121Z,51.51
2018-07-14T08:48:51.151Z,50.46
2018-07-14T08:49:51.171Z,50.48
2018-07-14T08:50:51.200Z,50.46
2018-07-14T08:51:51.233Z,52.36
2018-07-14T08:52:51.258Z,52.23
2018-07-14T08:53:51.296Z,52.82
2018-07-14T08:54:51.302Z,53.11
2018-07-14T08:55:51.333Z,52.65
2018-07-14T08:56:51.350Z,50.65
2018-07-14T08:57:51.376Z,51.48
2018-07-14T08:58:51.404Z,51.80
2018-07-14T08:59:51.430Z,51.51
2018-07-14T09:00:51.466Z,53.16
2018-07-14T09:01:51.480Z,54.32
2018-07-14T09:02:51.506Z,53.30
2018-07-14T09:03:51.545Z,52.62
2018-07-14T09:04:51.559Z,53.93
2018-07-14T09:05:51.577Z,56.79
2018-07-14T09:06:51.610Z,55.98
2018-07-14T09:07:51.640Z,55.49
2018-07-14T09:08:51.656Z,55.49
2018-07-14T09:09:51.680Z,56.62
2018-07-14T09:10:51.703Z,56.43
2018-07-14T09:11:51.743Z,55.61
2018-07-14T09:12:51.754Z,52.58
2018-07-14T09:13:51.778Z,52.82
2018-07-14T09:14:51.806Z,53.57
2018-07-14T09:15:51.851Z,54.42
2018-07-14T09:16:51.860Z,55.98
2018-07-14T09:17:51.888Z,55.46
2018-07-14T09:18:51.907Z,55.00
2018-07-14T09:19:51.942Z,55.07
2018-07-14T09:20:51.961Z,56.30
2018-07-14T09:21:51.979Z,55.49
2018-07-14T09:22:52.014Z,52.55
2018-07-14T09:23:52.032Z,51.87
2018-07-14T09:24:52.053Z,53.08
2018-07-14T09:25:52.086Z,54.71
2018-07-14T09:26:52.110Z,55.46
2018-07-14T09:27:52.134Z,55.33
2018-07-14T09:28:52.154Z,55.19
2018-07-14T09:29:52.185Z,54.25
2018-07-14T09:30:52.215Z,54.15
2018-07-14T09:31:52.252Z,53.11
2018-07-14T09:32:52.255Z,52.55
2018-07-14T09:33:52.280Z,50.92
2018-07-14T09:34:52.304Z,50.78
2018-07-14T09:35:52.329Z,49.41
2018-07-14T09:36:52.350Z,49.80
2018-07-14T09:37:52.388Z,50.97
2018-07-14T09:38:52.409Z,50.58
2018-07-14T09:39:52.451Z,49.73
2018-07-14T09:40:52.459Z,48.93
2018-07-14T09:41:52.482Z,49.61
2018-07-14T09:42:52.505Z,50.53
2018-07-14T09:43:52.553Z,50.29
2018-07-14T09:44:52.555Z,49.88
2018-07-14T09:45:52.578Z,49.80
2018-07-14T09:46:52.602Z,49.61
2018-07-14T09:47:52.703Z,48.66
2018-07-14T09:48:52.653Z,50.09
2018-07-14T09:49:52.689Z,48.85
2018-07-14T09:50:52.706Z,48.19
2018-07-14T09:51:52.733Z,47.90
2018-07-14T09:52:52.769Z,47.51
2018-07-14T09:53:52.788Z,47.44
2018-07-14T09:54:52.807Z,47.83
2018-07-14T09:55:52.840Z,46.29
2018-07-14T09:56:52.869Z,46.29
2018-07-14T09:57:52.887Z,45.61
2018-07-14T09:58:52.912Z,45.92
2018-07-14T09:59:52.939Z,45.53
2018-07-14T10:00:52.974Z,45.70
2018-07-14T10:01:52.994Z,45.90
2018-07-14T10:02:53.012Z,45.61
2018-07-14T10:03:53.036Z,45.62
2018-07-14T10:04:53.069Z,46.92
2018-07-14T10:05:53.099Z,48.39
2018-07-14T10:06:53.122Z,48.46
2018-07-14T10:07:53.141Z,47.63
2018-07-14T10:08:53.166Z,46.95
2018-07-14T10:09:53.226Z,46.58
2018-07-14T10:10:53.222Z,46.78
2018-07-14T10:11:53.245Z,46.75
2018-07-14T10:12:53.275Z,47.63
2018-07-14T10:13:53.308Z,49.32
2018-07-14T10:14:53.370Z,51.51
2018-07-14T10:15:53.349Z,49.80
2018-07-14T10:16:53.381Z,50.95
2018-07-14T10:17:53.399Z,50.38
2018-07-14T10:18:53.434Z,50.21
2018-07-14T10:19:53.458Z,49.71
2018-07-14T10:20:53.493Z,49.63
2018-07-14T10:21:53.509Z,50.09
2018-07-14T10:22:53.528Z,49.63
2018-07-14T10:23:53.557Z,49.15
2018-07-14T10:24:53.582Z,49.73
2018-07-14T10:25:53.709Z,49.15
2018-07-14T10:26:53.628Z,48.58
2018-07-14T10:27:53.658Z,47.63
2018-07-14T10:28:53.753Z,47.61
2018-07-14T10:29:53.708Z,47.73
2018-07-14T10:30:53.730Z,48.75
2018-07-14T10:31:53.759Z,49.02
2018-07-14T10:32:53.783Z,49.39
2018-07-14T10:33:53.862Z,51.29
2018-07-14T10:34:53.835Z,52.62
2018-07-14T10:35:53.860Z,52.62
2018-07-14T10:36:53.893Z,52.92
2018-07-14T10:37:53.909Z,52.55
2018-07-14T10:38:54.017Z,53.23
2018-07-14T10:39:53.971Z,52.67
2018-07-14T10:40:53.992Z,51.04
2018-07-14T10:41:54.033Z,50.73
2018-07-14T10:42:54.049Z,49.90
2018-07-14T10:43:54.079Z,49.66
2018-07-14T10:44:54.096Z,48.39
2018-07-14T10:45:54.120Z,49.88
2018-07-14T10:46:54.210Z,51.41
2018-07-14T10:47:54.196Z,51.51
2018-07-14T10:48:54.209Z,51.48
2018-07-14T10:49:54.229Z,51.31
2018-07-14T10:50:54.245Z,51.12
2018-07-14T10:51:54.273Z,51.24
2018-07-14T10:52:54.304Z,50.41
2018-07-14T10:53:54.334Z,51.04
2018-07-14T10:54:54.342Z,50.46
2018-07-14T10:55:54.380Z,52.89
2018-07-14T10:56:54.398Z,54.54
2018-07-14T10:57:54.432Z,55.94
2018-07-14T10:58:54.455Z,56.07
2018-07-14T10:59:54.467Z,55.22
2018-07-14T11:00:54.508Z,55.64
2018-07-14T11:01:54.528Z,53.42
2018-07-14T11:02:54.551Z,54.25
2018-07-14T11:03:54.568Z,53.96
2018-07-14T11:04:54.604Z,55.98
2018-07-14T11:05:54.656Z,54.44
2018-07-14T11:06:54.643Z,53.69
2018-07-14T11:07:54.676Z,53.04
2018-07-14T11:08:54.726Z,51.99
2018-07-14T11:09:54.722Z,49.97
2018-07-14T11:10:54.756Z,49.90
2018-07-14T11:11:54.767Z,50.36
2018-07-14T11:12:54.799Z,51.31
2018-07-14T11:13:54.848Z,51.61
2018-07-14T11:14:54.872Z,51.90
2018-07-14T11:15:54.866Z,51.34
2018-07-14T11:16:54.948Z,51.63
2018-07-14T11:17:54.990Z,51.36
2018-07-14T11:18:54.944Z,50.38
2018-07-14T11:19:54.965Z,50.68
2018-07-14T11:20:55.009Z,51.31
2018-07-14T11:21:55.015Z,51.80
2018-07-14T11:22:55.042Z,51.87
2018-07-14T11:23:55.076Z,52.45
2018-07-14T11:24:55.086Z,51.77
2018-07-14T11:25:55.115Z,50.63
2018-07-14T11:26:55.150Z,50.53
2018-07-14T11:27:55.164Z,51.31
2018-07-14T11:28:55.197Z,50.92
2018-07-14T11:29:55.220Z,50.56
2018-07-14T11:30:55.253Z,49.61
2018-07-14T11:31:55.269Z,48.46
2018-07-14T11:32:55.292Z,48.83
2018-07-14T11:33:55.318Z,49.58
2018-07-14T11:34:55.352Z,49.76
2018-07-14T11:35:55.368Z,50.53
2018-07-14T11:36:55.391Z,50.53
2018-07-14T11:37:55.423Z,50.07
2018-07-14T11:38:55.446Z,48.63
2018-07-14T11:39:55.470Z,49.85
2018-07-14T11:40:55.493Z,50.21
2018-07-14T11:41:55.519Z,51.19
2018-07-14T11:42:55.545Z,51.51
2018-07-14T11:43:55.572Z,49.88
2018-07-14T11:44:55.601Z,50.63
2018-07-14T11:45:55.634Z,51.19
2018-07-14T11:46:55.648Z,51.21
2018-07-14T11:47:55.761Z,50.19
2018-07-14T11:48:55.697Z,51.51
2018-07-14T11:49:55.729Z,52.67
2018-07-14T11:50:55.739Z,52.94
2018-07-14T11:51:55.764Z,51.51
2018-07-14T11:52:55.795Z,50.90
2018-07-14T11:53:55.820Z,53.30
2018-07-14T11:54:55.844Z,52.92
2018-07-14T11:55:55.874Z,53.20
2018-07-14T11:56:55.904Z,52.62
2018-07-14T11:57:55.927Z,52.87
2018-07-14T11:58:55.947Z,52.55
2018-07-14T11:59:55.974Z,53.38
2018-07-14T12:00:55.997Z,53.20
2018-07-14T12:01:56.073Z,51.87
2018-07-14T12:02:56.051Z,52.06
2018-07-14T12:03:56.075Z,51.67
2018-07-14T12:04:56.115Z,51.48
2018-07-14T12:05:56.133Z,52.89
2018-07-14T12:06:56.163Z,53.40
2018-07-14T12:07:56.180Z,54.08
2018-07-14T12:08:56.203Z,53.59
2018-07-14T12:09:56.216Z,52.55
2018-07-14T12:10:56.247Z,52.82
2018-07-14T12:11:56.268Z,52.62
2018-07-14T12:12:56.291Z,52.92
2018-07-14T12:13:56.333Z,53.52
2018-07-14T12:14:56.340Z,52.84
2018-07-14T12:15:56.365Z,52.87
2018-07-14T12:16:56.392Z,51.90
2018-07-14T12:17:56.414Z,51.80
2018-07-14T12:18:56.441Z,51.63
2018-07-14T12:19:56.470Z,51.61
2018-07-14T12:20:56.489Z,51.51
2018-07-14T12:21:56.531Z,51.61
2018-07-14T12:22:56.544Z,51.67
2018-07-14T12:23:56.566Z,51.65
2018-07-14T12:24:56.593Z,51.87
2018-07-14T12:25:56.617Z,52.45
2018-07-14T12:26:56.640Z,52.92
2018-07-14T12:27:56.662Z,53.08
2018-07-14T12:28:56.690Z,52.98
2018-07-14T12:29:56.724Z,52.69
2018-07-14T12:30:56.758Z,52.14
2018-07-14T12:31:56.779Z,51.21
2018-07-14T12:32:56.787Z,51.39
2018-07-14T12:33:56.824Z,50.04
2018-07-14T12:34:56.845Z,48.97
2018-07-14T12:35:56.871Z,49.39
2018-07-14T12:36:56.889Z,49.02
2018-07-14T12:37:56.913Z,47.66
2018-07-14T12:38:56.939Z,46.69
2018-07-14T12:39:56.957Z,46.61
2018-07-14T12:40:56.991Z,46.51
2018-07-14T12:41:57.018Z,47.78
2018-07-14T12:42:57.035Z,46.26
2018-07-14T12:43:57.069Z,45.39
2018-07-14T12:44:57.083Z,45.39
2018-07-14T12:45:57.112Z,45.19
2018-07-14T12:46:57.138Z,45.00
2018-07-14T12:47:57.165Z,45.17
2018-07-14T12:48:57.196Z,46.24
2018-07-14T12:49:57.216Z,45.29
2018-07-14T12:50:57.232Z,45.58
2018-07-14T12:51:57.258Z,44.85
2018-07-14T12:52:57.291Z,45.64